sensor_id;sensor_type;location;lat;lon;timestamp;P1;durP1;ratioP1;P2;durP2;ratioP2
781;SDS011;374;52.568;13.402;2024-03-02T16:55:21;19.73;;;14.07;;
781;SDS011;374;52.568;13.402;2024-03-02T16:58:36;19.63;;;14.40;;
781;SDS011;374;52.568;13.402;2024-03-02T17:01:57;16.90;;;13.00;;
781;SDS011;374;52.568;13.402;2024-03-02T17:05:45;17.10;;;13.83;;
781;SDS011;374;52.568;13.402;2024-03-02T17:12:22;16.00;;;12.90;;
781;SDS011;374;52.568;13.402;2024-03-02T17:37:04;22.20;;;15.97;;
781;SDS011;374;52.568;13.402;2024-03-02T17:40:38;20.07;;;15.47;;
781;SDS011;374;52.568;13.402;2024-03-02T17:43:44;26.27;;;16.90;;
781;SDS011;374;52.568;13.402;2024-03-02T17:47:15;23.57;;;15.13;;
781;SDS011;374;52.568;13.402;2024-03-02T17:50:35;21.13;;;16.80;;
781;SDS011;374;52.568;13.402;2024-03-02T17:54:03;24.00;;;16.50;;
781;SDS011;374;52.568;13.402;2024-03-02T17:57:10;26.20;;;17.00;;
781;SDS011;374;52.568;13.402;2024-03-02T18:00:59;20.87;;;16.07;;
781;SDS011;374;52.568;13.402;2024-03-02T18:04:29;26.97;;;16.50;;
781;SDS011;374;52.568;13.402;2024-03-02T18:08:12;23.10;;;17.90;;
781;SDS011;374;52.568;13.402;2024-03-02T18:11:42;24.50;;;17.20;;
781;SDS011;374;52.568;13.402;2024-03-02T18:15:12;24.90;;;18.30;;
781;SDS011;374;52.568;13.402;2024-03-02T18:18:49;30.50;;;18.10;;
781;SDS011;374;52.568;13.402;2024-03-02T18:22:40;23.17;;;17.73;;
781;SDS011;374;52.568;13.402;2024-03-02T18:26:10;24.40;;;18.67;;
781;SDS011;374;52.568;13.402;2024-03-02T18:30:00;27.03;;;18.47;;
781;SDS011;374;52.568;13.402;2024-03-02T18:33:13;26.40;;;19.77;;
781;SDS011;374;52.568;13.402;2024-03-02T18:36:47;28.50;;;20.03;;
781;SDS011;374;52.568;13.402;2024-03-02T18:39:44;29.33;;;20.40;;
781;SDS011;374;52.568;13.402;2024-03-02T18:42:51;26.03;;;19.33;;
781;SDS011;374;52.568;13.402;2024-03-02T18:46:19;26.43;;;19.13;;
781;SDS011;374;52.568;13.402;2024-03-02T18:49:55;20.97;;;17.90;;
781;SDS011;374;52.568;13.402;2024-03-02T18:53:26;27.30;;;20.27;;
781;SDS011;374;52.568;13.402;2024-03-02T18:56:46;25.10;;;18.30;;
781;SDS011;374;52.568;13.402;2024-03-02T19:00:23;26.80;;;18.97;;
781;SDS011;374;52.568;13.402;2024-03-02T19:03:55;32.47;;;19.90;;
781;SDS011;374;52.568;13.402;2024-03-02T19:06:53;27.57;;;20.30;;
781;SDS011;374;52.568;13.402;2024-03-02T19:10:15;32.03;;;21.13;;
781;SDS011;374;52.568;13.402;2024-03-02T19:13:07;26.50;;;21.30;;
781;SDS011;374;52.568;13.402;2024-03-02T19:16:40;28.80;;;22.20;;
781;SDS011;374;52.568;13.402;2024-03-02T19:20:16;30.63;;;22.70;;
781;SDS011;374;52.568;13.402;2024-03-02T19:23:33;28.67;;;21.30;;
781;SDS011;374;52.568;13.402;2024-03-02T19:26:36;26.60;;;20.73;;
781;SDS011;374;52.568;13.402;2024-03-02T19:30:05;28.37;;;22.10;;
781;SDS011;374;52.568;13.402;2024-03-02T19:33:21;27.03;;;21.30;;
781;SDS011;374;52.568;13.402;2024-03-02T19:36:50;31.30;;;20.60;;
781;SDS011;374;52.568;13.402;2024-03-02T19:40:03;29.57;;;22.00;;
781;SDS011;374;52.568;13.402;2024-03-02T19:43:18;27.93;;;22.93;;
781;SDS011;374;52.568;13.402;2024-03-02T19:46:40;28.10;;;22.70;;
781;SDS011;374;52.568;13.402;2024-03-02T19:50:02;30.20;;;22.60;;
781;SDS011;374;52.568;13.402;2024-03-02T19:53:39;36.47;;;22.73;;
781;SDS011;374;52.568;13.402;2024-03-02T19:57:20;29.30;;;22.03;;
781;SDS011;374;52.568;13.402;2024-03-02T20:00:18;27.93;;;23.40;;
781;SDS011;374;52.568;13.402;2024-03-02T20:04:00;29.50;;;22.50;;
781;SDS011;374;52.568;13.402;2024-03-02T20:07:42;31.07;;;23.60;;
781;SDS011;374;52.568;13.402;2024-03-02T20:14:14;28.70;;;22.33;;
781;SDS011;374;52.568;13.402;2024-03-02T20:17:41;28.47;;;21.77;;
781;SDS011;374;52.568;13.402;2024-03-02T20:21:13;29.13;;;23.80;;
781;SDS011;374;52.568;13.402;2024-03-02T20:24:44;32.33;;;25.70;;
781;SDS011;374;52.568;13.402;2024-03-02T20:31:52;42.43;;;33.90;;
781;SDS011;374;52.568;13.402;2024-03-02T20:35:16;43.57;;;33.33;;
781;SDS011;374;52.568;13.402;2024-03-02T20:38:02;42.00;;;32.90;;
781;SDS011;374;52.568;13.402;2024-03-02T20:41:15;46.00;;;33.23;;
781;SDS011;374;52.568;13.402;2024-03-02T20:48:21;39.60;;;31.40;;
781;SDS011;374;52.568;13.402;2024-03-02T20:51:31;38.17;;;30.53;;
781;SDS011;374;52.568;13.402;2024-03-02T20:54:54;36.17;;;31.53;;
781;SDS011;374;52.568;13.402;2024-03-02T20:58:37;42.13;;;31.10;;
781;SDS011;374;52.568;13.402;2024-03-02T21:05:48;38.93;;;30.80;;
781;SDS011;374;52.568;13.402;2024-03-02T21:09:04;44.43;;;29.93;;
781;SDS011;374;52.568;13.402;2024-03-02T21:12:35;34.20;;;30.50;;
781;SDS011;374;52.568;13.402;2024-03-02T21:16:09;43.63;;;29.90;;
781;SDS011;374;52.568;13.402;2024-03-02T21:19:51;35.20;;;29.40;;
781;SDS011;374;52.568;13.402;2024-03-02T21:23:19;40.70;;;30.60;;
781;SDS011;374;52.568;13.402;2024-03-02T21:26:39;42.00;;;31.27;;
781;SDS011;374;52.568;13.402;2024-03-02T21:30:01;40.70;;;30.93;;
781;SDS011;374;52.568;13.402;2024-03-02T21:32:56;40.47;;;32.20;;
781;SDS011;374;52.568;13.402;2024-03-02T21:36:05;42.30;;;31.30;;
781;SDS011;374;52.568;13.402;2024-03-02T21:39:40;43.90;;;31.97;;
781;SDS011;374;52.568;13.402;2024-03-02T21:43:11;41.17;;;32.67;;
781;SDS011;374;52.568;13.402;2024-03-02T21:46:52;41.40;;;32.20;;
781;SDS011;374;52.568;13.402;2024-03-02T22:15:36;35.87;;;29.37;;
